createdAt,value
2018-01-05T00:00:09.767Z,4.43
2018-01-05T00:02:46.723Z,9.00
2018-01-05T00:05:25.477Z,7.53
2018-01-05T00:08:01.639Z,6.00
2018-01-05T00:10:35.227Z,7.50
2018-01-05T00:13:08.833Z,6.03
2018-01-05T00:15:42.336Z,8.57
2018-01-05T00:18:16.758Z,11.20
2018-01-05T00:20:51.271Z,10.93
2018-01-05T00:23:25.700Z,6.87
2018-01-05T00:26:00.121Z,3.70
2018-01-05T00:31:12.338Z,6.73
2018-01-05T00:33:48.215Z,8.20
2018-01-05T00:36:21.993Z,7.47
2018-01-05T00:38:57.546Z,10.77
2018-01-05T00:41:31.658Z,9.73
2018-01-05T00:44:05.350Z,4.50
2018-01-05T00:46:38.964Z,11.37
2018-01-05T00:49:12.659Z,10.53
2018-01-05T00:51:46.260Z,11.60
2018-01-05T00:54:19.959Z,11.53
2018-01-05T00:56:53.611Z,4.90
2018-01-05T00:59:27.164Z,8.13
2018-01-05T01:02:01.663Z,7.87
2018-01-05T01:04:35.214Z,12.00
2018-01-05T01:07:09.568Z,6.27
2018-01-05T01:09:43.415Z,9.20
2018-01-05T01:12:16.895Z,12.40
2018-01-05T01:14:50.613Z,8.47
2018-01-05T01:17:24.218Z,14.77
2018-01-05T01:19:57.716Z,11.87
2018-01-05T01:22:31.416Z,14.07
2018-01-05T01:25:06.658Z,10.13
2018-01-05T01:27:40.153Z,7.80
2018-01-05T01:30:13.860Z,8.73
2018-01-05T01:32:47.547Z,9.97
2018-01-05T01:35:22.567Z,3.70
2018-01-05T01:37:57.795Z,10.83
2018-01-05T01:40:33.767Z,8.50
2018-01-05T01:43:07.591Z,5.60
2018-01-05T01:45:41.167Z,7.13
2018-01-05T01:48:15.308Z,5.03
2018-01-05T01:50:49.015Z,9.57
2018-01-05T01:56:02.056Z,5.97
2018-01-05T01:58:35.759Z,7.90
2018-01-05T02:01:09.339Z,8.40
2018-01-05T02:03:43.870Z,7.33
2018-01-05T02:06:17.363Z,5.80
2018-01-05T02:08:51.391Z,6.23
2018-01-05T02:11:28.447Z,9.57
2018-01-05T02:14:02.075Z,10.47
2018-01-05T02:16:36.597Z,16.27
2018-01-05T02:19:10.396Z,7.33
2018-01-05T02:21:44.416Z,7.87
2018-01-05T02:24:18.903Z,9.07
2018-01-05T02:26:53.311Z,7.60
2018-01-05T02:29:26.919Z,11.27
2018-01-05T02:32:00.503Z,6.20
2018-01-05T02:34:34.159Z,4.70
2018-01-05T02:37:08.169Z,10.07
2018-01-05T02:39:42.585Z,5.50
2018-01-05T02:42:16.367Z,10.63
2018-01-05T02:44:49.989Z,7.97
2018-01-05T02:47:23.556Z,9.23
2018-01-05T02:49:57.151Z,12.73
2018-01-05T02:52:31.816Z,7.70
2018-01-05T02:55:05.271Z,10.87
2018-01-05T03:00:25.495Z,14.17
2018-01-05T03:02:59.640Z,13.40
2018-01-05T03:05:33.541Z,8.97
2018-01-05T03:08:07.147Z,11.03
2018-01-05T03:10:40.915Z,7.57
2018-01-05T03:13:14.443Z,7.97
2018-01-05T03:15:47.927Z,12.90
2018-01-05T03:18:21.522Z,6.83
2018-01-05T03:20:56.381Z,12.37
2018-01-05T03:23:30.895Z,10.87
2018-01-05T03:26:04.600Z,7.53
2018-01-05T03:28:38.205Z,10.07
2018-01-05T03:33:50.937Z,5.80
2018-01-05T03:36:24.642Z,14.30
2018-01-05T03:38:58.240Z,10.63
2018-01-05T03:41:32.662Z,7.00
2018-01-05T03:44:07.395Z,12.40
2018-01-05T03:46:41.187Z,8.03
2018-01-05T03:49:14.692Z,13.53
2018-01-05T03:51:48.293Z,11.23
2018-01-05T03:54:22.202Z,9.63
2018-01-05T03:56:56.711Z,6.33
2018-01-05T03:59:30.419Z,15.20
2018-01-05T04:02:04.030Z,9.93
2018-01-05T04:04:37.575Z,11.63
2018-01-05T04:07:11.020Z,4.80
2018-01-05T04:09:44.580Z,16.37
2018-01-05T04:14:56.354Z,6.33
2018-01-05T04:17:31.672Z,11.87
2018-01-05T04:20:05.319Z,10.90
2018-01-05T04:22:38.915Z,13.47
2018-01-05T04:25:14.117Z,11.50
2018-01-05T04:27:48.506Z,11.17
2018-01-05T04:30:22.091Z,8.60
2018-01-05T04:32:55.736Z,14.73
2018-01-05T04:35:29.440Z,9.77
2018-01-05T04:38:03.037Z,18.47
2018-01-05T04:40:36.642Z,16.60
2018-01-05T04:43:10.243Z,15.47
2018-01-05T04:45:44.560Z,11.10
2018-01-05T04:48:18.161Z,10.90
2018-01-05T04:50:51.820Z,28.03
2018-01-05T04:53:25.427Z,14.50
2018-01-05T04:55:59.979Z,19.10
2018-01-05T04:58:33.539Z,17.23
2018-01-05T05:01:08.005Z,11.73
2018-01-05T05:03:41.918Z,8.83
2018-01-05T05:06:16.336Z,20.13
2018-01-05T05:08:50.551Z,7.40
2018-01-05T05:11:24.148Z,9.70
2018-01-05T05:13:58.651Z,10.23
2018-01-05T05:16:32.476Z,12.43
2018-01-05T05:19:06.207Z,10.30
2018-01-05T05:21:39.827Z,13.17
2018-01-05T05:24:13.688Z,12.90
2018-01-05T05:26:47.188Z,26.30
2018-01-05T05:29:21.615Z,8.30
2018-01-05T05:31:55.726Z,7.90
2018-01-05T05:34:29.942Z,11.93
2018-01-05T05:37:03.869Z,8.50
2018-01-05T05:39:37.847Z,13.63
2018-01-05T05:42:11.656Z,8.80
2018-01-05T05:44:45.435Z,20.47
2018-01-05T05:47:19.298Z,21.70
2018-01-05T05:49:53.845Z,11.13
2018-01-05T05:52:27.499Z,9.13
2018-01-05T05:55:02.058Z,12.63
2018-01-05T05:57:35.770Z,6.13
2018-01-05T06:00:09.664Z,13.53
2018-01-05T06:02:44.213Z,11.67
2018-01-05T06:05:19.809Z,10.90
2018-01-05T06:07:53.697Z,10.00
2018-01-05T06:10:28.686Z,6.97
2018-01-05T06:13:04.387Z,5.73
2018-01-05T06:15:39.646Z,12.13
2018-01-05T06:18:14.788Z,6.40
2018-01-05T06:20:50.153Z,10.33
2018-01-05T06:23:25.300Z,10.63
2018-01-05T06:26:01.250Z,11.07
2018-01-05T06:28:36.493Z,6.63
2018-01-05T06:31:11.943Z,12.00
2018-01-05T06:33:45.745Z,4.03
2018-01-05T06:36:19.499Z,9.50
2018-01-05T06:38:53.095Z,4.77
2018-01-05T06:41:26.694Z,6.60
2018-01-05T06:44:00.408Z,5.63
2018-01-05T06:46:34.111Z,10.73
2018-01-05T06:49:07.808Z,4.03
2018-01-05T06:51:41.620Z,6.63
2018-01-05T06:54:15.210Z,3.33
2018-01-05T06:56:49.436Z,2.67
2018-01-05T06:59:23.240Z,3.07
2018-01-05T07:01:56.934Z,3.50
2018-01-05T07:04:31.377Z,5.40
2018-01-05T07:07:04.964Z,1.60
2018-01-05T07:09:38.873Z,4.40
2018-01-05T07:12:12.367Z,3.80
2018-01-05T07:14:47.498Z,4.10
2018-01-05T07:17:21.203Z,3.90
2018-01-05T07:19:54.913Z,2.40
2018-01-05T07:22:28.515Z,3.57
2018-01-05T07:25:02.935Z,5.73
2018-01-05T07:27:36.526Z,1.97
2018-01-05T07:30:10.107Z,2.80
2018-01-05T07:32:43.695Z,9.83
2018-01-05T07:35:17.307Z,1.53
2018-01-05T07:37:50.932Z,7.43
2018-01-05T07:40:24.389Z,2.03
2018-01-05T07:42:58.042Z,3.97
2018-01-05T07:45:31.835Z,1.80
2018-01-05T07:48:06.323Z,6.00
2018-01-05T07:50:40.684Z,4.33
2018-01-05T07:53:14.387Z,1.10
2018-01-05T07:55:47.947Z,2.00
2018-01-05T07:58:21.589Z,1.70
2018-01-05T08:00:56.745Z,2.20
2018-01-05T08:03:34.603Z,3.10
2018-01-05T08:06:08.524Z,2.87
2018-01-05T08:08:42.238Z,1.13
2018-01-05T08:11:16.041Z,3.30
2018-01-05T08:13:51.355Z,4.30
2018-01-05T08:16:24.979Z,3.03
2018-01-05T08:19:00.435Z,1.37
2018-01-05T08:21:36.491Z,1.93
2018-01-05T08:24:10.798Z,2.80
2018-01-05T08:26:44.510Z,1.10
2018-01-05T08:29:18.199Z,5.93
2018-01-05T08:31:51.913Z,1.20
2018-01-05T08:34:25.491Z,3.57
2018-01-05T08:36:59.086Z,3.00
2018-01-05T08:39:32.823Z,1.93
2018-01-05T08:42:06.366Z,2.70
2018-01-05T08:44:39.787Z,3.67
2018-01-05T08:47:13.380Z,5.00
2018-01-05T08:49:47.020Z,4.37
2018-01-05T08:52:20.611Z,1.90
2018-01-05T08:54:54.110Z,2.37
2018-01-05T08:57:27.820Z,1.67
2018-01-05T09:00:01.370Z,2.80
2018-01-05T09:02:35.028Z,1.47
2018-01-05T09:05:08.831Z,0.97
2018-01-05T09:07:42.948Z,4.47
2018-01-05T09:10:16.619Z,1.67
2018-01-05T09:12:50.391Z,1.30
2018-01-05T09:15:24.159Z,2.97
2018-01-05T09:17:57.960Z,2.07
2018-01-05T09:20:31.456Z,1.13
2018-01-05T09:23:05.050Z,1.00
2018-01-05T09:25:38.660Z,3.33
2018-01-05T09:28:12.559Z,0.70
2018-01-05T09:30:47.071Z,1.47
2018-01-05T09:33:20.779Z,1.63
2018-01-05T09:35:54.386Z,2.40
2018-01-05T09:38:28.047Z,1.20
2018-01-05T09:41:02.211Z,1.33
2018-01-05T09:43:36.013Z,1.77
2018-01-05T09:46:09.562Z,1.63
2018-01-05T09:48:43.111Z,2.17
2018-01-05T09:51:16.778Z,1.17
2018-01-05T09:53:50.425Z,1.23
2018-01-05T09:56:23.987Z,2.03
2018-01-05T09:58:57.621Z,1.40
2018-01-05T10:01:32.019Z,3.07
2018-01-05T10:04:05.747Z,0.70
2018-01-05T10:06:40.211Z,0.63
2018-01-05T10:09:14.454Z,1.63
2018-01-05T10:11:48.185Z,1.00
2018-01-05T10:14:21.786Z,0.60
2018-01-05T10:16:55.288Z,1.00
2018-01-05T10:19:28.858Z,0.93
2018-01-05T10:22:02.547Z,0.97
2018-01-05T10:24:36.189Z,1.77
2018-01-05T10:27:09.774Z,0.80
2018-01-05T10:29:43.339Z,2.47
2018-01-05T10:32:16.784Z,2.10
2018-01-05T10:34:50.388Z,4.37
2018-01-05T10:37:23.863Z,0.90
2018-01-05T10:39:57.487Z,0.70
2018-01-05T10:42:31.124Z,0.60
2018-01-05T10:45:04.561Z,0.70
2018-01-05T10:47:38.290Z,1.07
2018-01-05T10:50:12.584Z,1.30
2018-01-05T10:52:46.204Z,1.40
2018-01-05T10:55:19.805Z,2.77
2018-01-05T10:57:53.523Z,2.67
2018-01-05T11:00:27.895Z,2.43
2018-01-05T11:03:01.507Z,0.90
2018-01-05T11:05:35.087Z,0.90
2018-01-05T11:08:08.629Z,0.80
2018-01-05T11:10:42.233Z,2.83
2018-01-05T11:13:15.936Z,1.30
2018-01-05T11:15:49.488Z,2.50
2018-01-05T11:18:23.147Z,1.73
2018-01-05T11:20:57.557Z,1.67
2018-01-05T11:23:31.151Z,3.13
2018-01-05T11:26:04.672Z,1.00
2018-01-05T11:28:38.459Z,1.37
2018-01-05T11:31:12.055Z,6.27
2018-01-05T11:33:46.164Z,1.20
2018-01-05T11:36:19.680Z,2.97
2018-01-05T11:38:53.378Z,5.00
2018-01-05T11:41:27.031Z,1.03
2018-01-05T11:44:00.580Z,6.53
2018-01-05T11:46:34.897Z,1.87
2018-01-05T11:49:08.603Z,2.73
2018-01-05T11:51:42.172Z,3.83
2018-01-05T11:54:16.379Z,2.40
2018-01-05T11:56:49.987Z,2.10
2018-01-05T11:59:23.720Z,1.70
2018-01-05T12:01:57.420Z,3.47
2018-01-05T12:04:31.328Z,3.40
2018-01-05T12:07:06.063Z,2.10
2018-01-05T12:09:39.554Z,6.33
2018-01-05T12:12:13.007Z,1.43
2018-01-05T12:14:46.756Z,1.50
2018-01-05T12:17:20.315Z,1.80
2018-01-05T12:19:53.957Z,1.43
2018-01-05T12:22:27.664Z,1.40
2018-01-05T12:25:01.268Z,1.20
2018-01-05T12:27:34.835Z,5.03
2018-01-05T12:30:08.459Z,0.77
2018-01-05T12:32:41.927Z,1.00
2018-01-05T12:35:15.565Z,1.40
2018-01-05T12:37:49.119Z,3.00
2018-01-05T12:40:23.585Z,2.00
2018-01-05T12:42:57.166Z,6.03
2018-01-05T12:45:30.778Z,2.70
2018-01-05T12:48:04.593Z,2.40
2018-01-05T12:50:38.092Z,7.93
2018-01-05T12:53:11.688Z,2.00
2018-01-05T12:55:45.362Z,5.80
2018-01-05T12:58:18.993Z,2.80
2018-01-05T13:00:52.570Z,2.63
2018-01-05T13:03:26.147Z,4.70
2018-01-05T13:05:59.703Z,5.40
2018-01-05T13:08:33.391Z,5.97
2018-01-05T13:11:07.210Z,4.90
2018-01-05T13:13:40.805Z,1.40
2018-01-05T13:16:14.612Z,2.30
2018-01-05T13:18:48.306Z,3.37
2018-01-05T13:21:21.913Z,9.57
2018-01-05T13:23:55.610Z,2.70
2018-01-05T13:26:29.220Z,2.50
2018-01-05T13:29:03.608Z,2.80
2018-01-05T13:31:37.136Z,4.03
2018-01-05T13:34:10.941Z,2.47
2018-01-05T13:36:44.743Z,7.13
2018-01-05T13:39:18.319Z,4.53
2018-01-05T13:41:51.952Z,1.53
2018-01-05T13:44:25.450Z,3.77
2018-01-05T13:46:58.944Z,4.87
2018-01-05T13:49:32.423Z,2.90
2018-01-05T13:52:06.024Z,3.67
2018-01-05T13:54:39.587Z,2.23
2018-01-05T13:57:13.138Z,5.93
2018-01-05T13:59:46.646Z,1.77
2018-01-05T14:02:20.134Z,2.63
2018-01-05T14:04:54.663Z,2.63
2018-01-05T14:07:28.259Z,2.23
2018-01-05T14:10:01.843Z,1.53
2018-01-05T14:12:35.427Z,2.60
2018-01-05T14:15:09.172Z,2.70
2018-01-05T14:17:42.871Z,3.10
2018-01-05T14:20:16.373Z,3.73
2018-01-05T14:22:50.076Z,2.97
2018-01-05T14:25:23.677Z,2.80
2018-01-05T14:27:57.276Z,2.67
2018-01-05T14:30:30.777Z,3.23
2018-01-05T14:33:04.380Z,2.90
2018-01-05T14:35:38.048Z,9.77
2018-01-05T14:38:11.683Z,2.30
2018-01-05T14:40:45.275Z,9.87
2018-01-05T14:43:18.851Z,4.00
2018-01-05T14:45:52.587Z,3.27
2018-01-05T14:48:26.166Z,3.20
2018-01-05T14:50:59.678Z,4.17
2018-01-05T14:53:33.284Z,4.17
2018-01-05T14:56:06.953Z,3.20
2018-01-05T14:58:40.489Z,5.90
2018-01-05T15:01:14.195Z,3.37
2018-01-05T15:03:48.714Z,4.00
2018-01-05T15:06:22.413Z,3.93
2018-01-05T15:08:56.211Z,4.23
2018-01-05T15:11:29.927Z,6.43
2018-01-05T15:14:03.428Z,1.90
2018-01-05T15:16:37.715Z,5.70
2018-01-05T15:19:11.336Z,2.43
2018-01-05T15:21:45.823Z,3.03
2018-01-05T15:24:19.668Z,5.43
2018-01-05T15:26:53.263Z,7.23
2018-01-05T15:29:27.775Z,4.53
2018-01-05T15:32:01.448Z,11.83
2018-01-05T15:34:35.910Z,4.03
2018-01-05T15:37:09.467Z,5.07
2018-01-05T15:39:43.455Z,3.13
2018-01-05T15:42:17.228Z,3.37
2018-01-05T15:44:50.695Z,3.30
2018-01-05T15:47:24.225Z,2.43
2018-01-05T15:49:57.724Z,3.53
2018-01-05T15:52:32.049Z,7.73
2018-01-05T15:55:06.436Z,5.70
2018-01-05T15:57:40.066Z,3.93
2018-01-05T16:00:13.659Z,4.30
2018-01-05T16:02:47.161Z,2.93
2018-01-05T16:05:20.612Z,3.00
2018-01-05T16:07:55.150Z,7.30
2018-01-05T16:10:28.895Z,5.00
2018-01-05T16:13:02.491Z,3.83
2018-01-05T16:15:36.139Z,8.90
2018-01-05T16:18:10.706Z,4.67
2018-01-05T16:20:44.928Z,6.17
2018-01-05T16:23:18.636Z,6.77
2018-01-05T16:25:52.135Z,5.67
2018-01-05T16:28:26.051Z,5.53
2018-01-05T16:30:59.641Z,5.90
2018-01-05T16:33:33.120Z,6.30
2018-01-05T16:36:06.748Z,7.67
2018-01-05T16:38:41.143Z,7.27
2018-01-05T16:41:14.725Z,5.60
2018-01-05T16:43:48.481Z,5.50
2018-01-05T16:46:22.080Z,5.00
2018-01-05T16:48:56.704Z,7.27
2018-01-05T16:51:30.179Z,4.60
2018-01-05T16:54:03.790Z,9.60
2018-01-05T16:56:37.495Z,10.17
2018-01-05T16:59:11.192Z,7.23
2018-01-05T17:01:46.119Z,9.33
2018-01-05T17:04:19.960Z,7.63
2018-01-05T17:06:53.864Z,12.80
2018-01-05T17:09:27.440Z,27.03
2018-01-05T17:12:01.000Z,12.87
2018-01-05T17:14:35.315Z,9.10
2018-01-05T17:17:08.963Z,9.40
2018-01-05T17:19:42.763Z,8.63
2018-01-05T17:22:16.258Z,10.93
2018-01-05T17:24:49.828Z,10.90
2018-01-05T17:27:24.385Z,8.10
2018-01-05T17:29:57.990Z,12.40
2018-01-05T17:32:31.689Z,15.03
2018-01-05T17:35:05.192Z,10.33
2018-01-05T17:37:38.683Z,9.10
2018-01-05T17:40:12.288Z,10.13
2018-01-05T17:42:46.807Z,9.40
2018-01-05T17:45:20.303Z,13.43
2018-01-05T17:47:53.819Z,10.57
2018-01-05T17:50:28.333Z,11.37
2018-01-05T17:53:01.928Z,9.83
2018-01-05T17:55:35.479Z,7.20
2018-01-05T17:58:09.231Z,8.50
2018-01-05T18:00:42.952Z,11.73
2018-01-05T18:03:16.531Z,13.57
2018-01-05T18:05:50.272Z,11.50
2018-01-05T18:08:23.801Z,12.27
2018-01-05T18:10:57.545Z,9.97
2018-01-05T18:13:31.190Z,10.00
2018-01-05T18:16:04.751Z,12.10
2018-01-05T18:18:38.455Z,11.40
2018-01-05T18:21:12.032Z,8.23
2018-01-05T18:23:45.602Z,9.40
2018-01-05T18:26:19.103Z,7.83
2018-01-05T18:28:52.755Z,10.83
2018-01-05T18:31:26.273Z,8.40
2018-01-05T18:33:59.854Z,7.93
2018-01-05T18:36:34.326Z,8.20
2018-01-05T18:39:08.175Z,5.63
2018-01-05T18:41:41.719Z,5.97
2018-01-05T18:44:15.277Z,8.50
2018-01-05T18:46:48.797Z,5.17
2018-01-05T18:49:22.339Z,3.27
2018-01-05T18:51:56.551Z,6.43
2018-01-05T18:54:30.763Z,5.03
2018-01-05T18:57:04.503Z,7.10
2018-01-05T18:59:38.895Z,8.47
2018-01-05T19:02:13.326Z,2.37
2018-01-05T19:04:47.539Z,2.90
2018-01-05T19:07:21.766Z,3.10
2018-01-05T19:09:55.215Z,4.90
2018-01-05T19:12:28.777Z,5.87
2018-01-05T19:15:02.423Z,9.67
2018-01-05T19:17:35.882Z,4.87
2018-01-05T19:20:09.441Z,3.27
2018-01-05T19:22:43.033Z,5.20
2018-01-05T19:25:17.372Z,4.27
2018-01-05T19:27:51.572Z,5.07
2018-01-05T19:30:25.128Z,5.23
2018-01-05T19:32:58.715Z,5.73
2018-01-05T19:35:32.170Z,7.47
2018-01-05T19:38:05.848Z,9.00
2018-01-05T19:40:39.539Z,7.43
2018-01-05T19:43:13.056Z,10.63
2018-01-05T19:45:46.715Z,9.40
2018-01-05T19:48:20.308Z,6.93
2018-01-05T19:50:53.775Z,11.27
2018-01-05T19:53:27.291Z,11.70
2018-01-05T19:56:01.519Z,10.13
2018-01-05T19:58:35.736Z,8.30
2018-01-05T20:01:09.938Z,13.73
2018-01-05T20:03:43.568Z,16.40
2018-01-05T20:06:17.025Z,8.03
2018-01-05T20:08:50.490Z,8.93
2018-01-05T20:11:23.936Z,9.53
2018-01-05T20:13:57.458Z,10.60
2018-01-05T20:16:30.978Z,9.60
2018-01-05T20:19:04.643Z,12.40
2018-01-05T20:21:38.120Z,9.70
2018-01-05T20:24:12.335Z,9.10
2018-01-05T20:26:45.852Z,8.93
2018-01-05T20:29:19.300Z,12.80
2018-01-05T20:31:52.927Z,7.63
2018-01-05T20:34:26.547Z,7.50
2018-01-05T20:37:00.772Z,10.40
2018-01-05T20:39:34.251Z,11.83
2018-01-05T20:42:08.660Z,8.10
2018-01-05T20:44:42.224Z,9.40
2018-01-05T20:47:15.681Z,10.33
2018-01-05T20:49:49.913Z,11.27
2018-01-05T20:52:23.359Z,11.43
2018-01-05T20:54:56.814Z,7.93
2018-01-05T20:57:31.211Z,10.20
2018-01-05T21:00:04.808Z,11.73
2018-01-05T21:02:38.280Z,7.40
2018-01-05T21:05:11.755Z,5.60
2018-01-05T21:07:45.415Z,11.10
2018-01-05T21:10:18.960Z,8.00
2018-01-05T21:12:52.475Z,5.73
2018-01-05T21:15:26.004Z,4.67
2018-01-05T21:17:59.491Z,5.63
2018-01-05T21:20:33.699Z,6.20
2018-01-05T21:23:07.260Z,5.83
2018-01-05T21:25:40.863Z,7.80
2018-01-05T21:28:14.423Z,6.90
2018-01-05T21:30:47.866Z,7.83
2018-01-05T21:33:21.411Z,10.03
2018-01-05T21:35:55.043Z,5.13
2018-01-05T21:38:29.303Z,5.33
2018-01-05T21:41:03.764Z,8.47
2018-01-05T21:43:37.327Z,8.50
2018-01-05T21:46:10.806Z,9.07
2018-01-05T21:48:44.307Z,5.83
2018-01-05T21:51:17.975Z,4.80
2018-01-05T21:53:51.420Z,11.67
2018-01-05T21:56:24.959Z,8.03
2018-01-05T21:58:58.542Z,7.33
2018-01-05T22:01:32.791Z,7.10
2018-01-05T22:04:06.223Z,9.77
2018-01-05T22:06:40.538Z,8.70
2018-01-05T22:09:13.939Z,11.93
2018-01-05T22:11:47.398Z,8.83
2018-01-05T22:14:20.859Z,8.07
2018-01-05T22:16:54.541Z,8.20
2018-01-05T22:19:28.007Z,7.73
2018-01-05T22:22:01.519Z,7.80
2018-01-05T22:24:34.970Z,7.13
2018-01-05T22:27:09.289Z,8.77
2018-01-05T22:29:42.736Z,10.53
2018-01-05T22:32:16.392Z,6.10
2018-01-05T22:34:50.688Z,10.37
2018-01-05T22:37:24.187Z,4.63
2018-01-05T22:39:58.395Z,5.00
2018-01-05T22:42:32.001Z,18.87
2018-01-05T22:45:05.556Z,9.03
2018-01-05T22:47:39.015Z,8.57
2018-01-05T22:50:12.467Z,6.47
2018-01-05T22:52:45.919Z,6.33
2018-01-05T22:55:19.595Z,4.90
2018-01-05T22:57:53.840Z,12.60
2018-01-05T23:00:28.023Z,9.63
2018-01-05T23:03:02.243Z,4.40
2018-01-05T23:05:36.452Z,9.73
2018-01-05T23:08:10.005Z,5.50
2018-01-05T23:10:43.448Z,4.23
2018-01-05T23:13:17.091Z,9.60
2018-01-05T23:15:50.659Z,7.07
2018-01-05T23:18:24.171Z,7.70
2018-01-05T23:20:58.583Z,10.40
2018-01-05T23:23:32.788Z,7.17
2018-01-05T23:26:06.322Z,7.73
2018-01-05T23:28:40.597Z,9.70
2018-01-05T23:31:14.138Z,5.20
2018-01-05T23:33:47.847Z,13.60
2018-01-05T23:36:21.407Z,15.10
2018-01-05T23:38:55.619Z,7.63
2018-01-05T23:41:29.095Z,5.97
2018-01-05T23:44:02.610Z,5.53
2018-01-05T23:46:36.143Z,8.97
2018-01-05T23:49:09.592Z,6.70
2018-01-05T23:51:43.183Z,11.80
2018-01-05T23:54:17.523Z,7.27
2018-01-05T23:56:51.950Z,7.60
2018-01-05T23:59:25.519Z,5.50
